Time;durP1;ratioP1;P1;durP2;ratioP2;P2;SDS_P1;SDS_P2;PMS_P1;PMS_P2;Temp;Humidity;BMP_temperature;BMP_pressure;BME280_temperature;BME280_humidity;BME280_pressure;Samples;Min_cycle;Max_cycle;Signal;HPM_P1;HPM_P2
2022/05/12 00:00:01;;;;;;;4.95;3.00;;;;;;;20.10;49.74;96677.75;5062645;28;20207;-49
2022/05/12 00:02:29;;;;;;;2.60;2.33;;;;;;;20.08;50.31;96670.94;5061062;28;20211;-49
2022/05/12 00:04:55;;;;;;;2.75;2.50;;;;;;;20.04;50.76;96678.56;5061514;28;20230;-49
2022/05/12 00:07:22;;;;;;;3.42;2.63;;;;;;;20.01;50.97;96673.63;5063448;28;20218;-50
2022/05/12 00:09:48;;;;;;;5.53;2.58;;;;;;;19.95;52.08;96674.41;5064339;28;20199;-50
2022/05/12 00:12:16;;;;;;;2.65;2.45;;;;;;;19.82;54.61;96666.28;5064762;28;20576;-50
2022/05/12 00:14:43;;;;;;;2.78;2.47;;;;;;;19.78;53.00;96667.72;5064415;28;20225;-49
2022/05/12 00:17:10;;;;;;;4.32;2.70;;;;;;;19.78;52.13;96665.03;5061799;28;20214;-50
2022/05/12 00:19:37;;;;;;;2.80;2.47;;;;;;;19.79;51.20;96667.53;5059865;28;20256;-50
2022/05/12 00:22:04;;;;;;;2.75;2.55;;;;;;;19.75;52.84;96679.69;5061137;28;20250;-50
2022/05/12 00:24:30;;;;;;;3.90;2.60;;;;;;;19.66;53.30;96688.91;5060528;28;20268;-51
2022/05/12 00:26:59;;;;;;;2.90;2.70;;;;;;;19.52;54.55;96697.13;5053726;28;20207;-50
2022/05/12 00:29:28;;;;;;;4.15;2.30;;;;;;;19.39;55.85;96705.84;5048046;28;20290;-49
2022/05/12 00:31:55;;;;;;;3.88;2.40;;;;;;;19.25;56.98;96704.09;5055320;28;20673;-49
2022/05/12 00:34:22;;;;;;;4.88;2.72;;;;;;;19.16;57.24;96710.66;5056103;28;20218;-49
2022/05/12 00:36:49;;;;;;;3.03;2.72;;;;;;;19.08;58.40;96708.09;5056064;28;20211;-50
2022/05/12 00:39:16;;;;;;;3.60;3.10;;;;;;;18.98;59.45;96708.44;5056085;28;20300;-50
2022/05/12 00:41:44;;;;;;;2.95;2.47;;;;;;;18.97;57.13;96704.09;5055826;28;20203;-49
2022/05/12 00:44:13;;;;;;;2.70;2.50;;;;;;;18.98;57.77;96702.25;5055817;28;20273;-49
2022/05/12 00:46:41;;;;;;;2.97;2.70;;;;;;;18.93;58.50;96710.03;5042833;28;20207;-49
2022/05/12 00:49:12;;;;;;;5.80;2.58;;;;;;;18.99;54.93;96703.94;5055586;28;20528;-50
2022/05/12 00:51:41;;;;;;;2.80;2.58;;;;;;;19.05;53.17;96703.13;5055231;28;20639;-49
2022/05/12 00:54:19;;;;;;;2.47;2.30;;;;;;;19.11;53.23;96715.75;5055388;28;20237;-50
2022/05/12 00:56:47;;;;;;;3.22;2.28;;;;;;;19.19;51.69;96715.63;5055521;28;20199;-50
2022/05/12 00:59:22;;;;;;;4.40;2.35;;;;;;;19.31;50.59;96719.41;5055370;28;20203;-49
2022/05/12 01:01:53;;;;;;;2.22;2.10;;;;;;;19.49;50.53;96717.09;5055144;28;20683;-50
2022/05/12 01:04:21;;;;;;;3.13;2.53;;;;;;;19.51;49.74;96717.75;5055172;28;20676;-50
2022/05/12 01:06:47;;;;;;;4.25;2.20;;;;;;;19.62;48.59;96714.50;5055584;28;20214;-50
2022/05/12 01:09:15;;;;;;;3.33;2.40;;;;;;;19.63;48.58;96716.16;5061459;28;20206;-49
2022/05/12 01:11:42;;;;;;;2.42;2.17;;;;;;;19.59;49.19;96719.44;5078022;28;20194;-51
2022/05/12 01:14:11;;;;;;;2.47;2.28;;;;;;;19.60;48.89;96713.03;5079009;28;20283;-49
2022/05/12 01:16:43;;;;;;;2.10;1.95;;;;;;;19.68;47.83;96716.41;5065774;28;20279;-49
2022/05/12 01:19:12;;;;;;;5.60;2.47;;;;;;;19.65;48.05;96716.78;5042888;28;20235;-49
2022/05/12 01:21:40;;;;;;;2.30;2.10;;;;;;;19.66;47.62;96713.06;5053742;28;20272;-49
2022/05/12 01:24:09;;;;;;;3.53;2.35;;;;;;;19.58;48.21;96721.28;5055399;28;20214;-50
2022/05/12 01:26:36;;;;;;;2.63;2.00;;;;;;;19.55;48.69;96719.00;5054812;28;20682;-49
2022/05/12 01:29:05;;;;;;;2.50;2.17;;;;;;;19.49;49.21;96722.44;5054615;28;20210;-49
2022/05/12 01:31:32;;;;;;;2.92;2.13;;;;;;;19.39;48.58;96717.41;5055042;28;20218;-51
2022/05/12 01:33:59;;;;;;;3.35;1.95;;;;;;;19.42;48.75;96726.94;5054822;28;20217;-49
2022/05/12 01:36:25;;;;;;;2.30;2.15;;;;;;;19.36;49.26;96722.34;5054875;28;20571;-50
2022/05/12 01:38:52;;;;;;;5.30;2.30;;;;;;;19.30;49.95;96723.13;5054976;28;20211;-50
2022/05/12 01:41:24;;;;;;;2.45;2.25;;;;;;;19.26;49.66;96721.88;5054565;28;20199;-49
2022/05/12 01:43:51;;;;;;;2.60;2.40;;;;;;;19.22;49.95;96726.78;5054371;28;20202;-49
2022/05/12 01:46:18;;;;;;;3.55;2.20;;;;;;;19.16;49.52;96729.41;5054669;28;20227;-49
2022/05/12 01:48:46;;;;;;;2.88;2.40;;;;;;;19.13;50.94;96727.13;5054738;28;20508;-49
2022/05/12 01:51:15;;;;;;;3.75;2.22;;;;;;;19.04;51.71;96730.97;5054730;28;20241;-50
2022/05/12 01:53:42;;;;;;;2.50;2.25;;;;;;;18.92;50.86;96724.47;5069718;28;20214;-50
2022/05/12 01:56:09;;;;;;;3.85;2.45;;;;;;;18.85;54.48;96743.16;5054621;28;20199;-49
2022/05/12 01:58:38;;;;;;;2.83;2.30;;;;;;;18.74;54.73;96735.66;5054811;28;20213;-49
2022/05/12 02:01:07;;;;;;;4.10;2.13;;;;;;;18.68;53.50;96734.53;5053567;28;20214;-50
2022/05/12 02:03:34;;;;;;;2.45;2.17;;;;;;;18.62;53.75;96735.31;5054619;28;20246;-50
2022/05/12 02:06:01;;;;;;;4.30;2.50;;;;;;;18.55;53.04;96739.78;5053387;28;20227;-49
2022/05/12 02:08:28;;;;;;;2.85;2.60;;;;;;;18.38;55.53;96739.16;5054514;28;20631;-49
2022/05/12 02:10:55;;;;;;;2.78;2.50;;;;;;;18.29;55.92;96744.81;5054715;28;20207;-50
2022/05/12 02:13:25;;;;;;;2.85;2.17;;;;;;;18.18;56.30;96747.97;5054995;28;20290;-50
2022/05/12 02:15:55;;;;;;;3.92;2.45;;;;;;;18.10;56.26;96743.56;5048340;28;20624;-50
2022/05/12 02:18:22;;;;;;;3.65;2.30;;;;;;;18.02;57.63;96748.19;5048824;28;20214;-48
2022/05/12 02:20:49;;;;;;;3.72;2.45;;;;;;;17.91;58.48;96746.81;5054819;28;20284;-50
2022/05/12 02:23:16;;;;;;;2.95;2.47;;;;;;;17.89;57.67;96746.97;5055493;28;20238;-50
2022/05/12 02:25:43;;;;;;;2.53;2.42;;;;;;;17.81;58.75;96744.44;5054032;28;20240;-49
2022/05/12 02:28:09;;;;;;;2.85;2.40;;;;;;;17.82;57.32;96751.41;5057102;28;20219;-49
2022/05/12 02:30:36;;;;;;;2.85;2.63;;;;;;;17.77;57.15;96753.84;5072804;28;20191;-50
2022/05/12 02:33:05;;;;;;;2.88;2.47;;;;;;;17.74;58.17;96764.06;5074081;28;20210;-50
2022/05/12 02:35:32;;;;;;;4.47;2.53;;;;;;;17.70;57.82;96763.63;5058949;28;20195;-49
2022/05/12 02:37:59;;;;;;;2.85;2.28;;;;;;;17.54;60.21;96760.22;5054321;28;20214;-49
2022/05/12 02:40:28;;;;;;;2.85;2.45;;;;;;;17.55;59.43;96768.09;5054325;28;20623;-51
2022/05/12 02:42:55;;;;;;;4.20;2.58;;;;;;;17.60;57.71;96764.91;5053754;28;20298;-50
2022/05/12 02:45:22;;;;;;;5.20;2.45;;;;;;;17.49;58.50;96768.81;5054016;28;20230;-49
2022/05/12 02:47:49;;;;;;;3.45;2.63;;;;;;;17.49;58.68;96774.16;5054147;28;20534;-51
2022/05/12 02:50:18;;;;;;;2.72;2.53;;;;;;;17.35;60.97;96775.81;5054373;28;20203;-49
2022/05/12 02:52:44;;;;;;;3.28;2.70;;;;;;;17.39;57.26;96768.25;5052711;28;20512;-50
2022/05/12 02:55:11;;;;;;;2.80;2.60;;;;;;;17.38;58.09;96782.63;5056674;28;20615;-50
2022/05/12 02:57:39;;;;;;;2.97;2.38;;;;;;;17.33;58.27;96777.00;5057686;28;20211;-50
2022/05/12 03:00:10;;;;;;;2.38;2.20;;;;;;;17.26;59.49;96781.41;5057727;28;20203;-50
2022/05/12 03:02:37;;;;;;;3.67;2.38;;;;;;;17.20;60.42;96782.13;5057182;28;20207;-48
2022/05/12 03:05:04;;;;;;;2.53;2.33;;;;;;;17.09;60.58;96787.91;5057266;28;20663;-49
2022/05/12 03:07:34;;;;;;;3.25;2.38;;;;;;;17.05;61.71;96789.25;5057248;28;20294;-50
2022/05/12 03:10:04;;;;;;;4.65;2.40;;;;;;;16.96;60.94;96785.00;5057554;28;20195;-49
2022/05/12 03:12:32;;;;;;;3.50;2.42;;;;;;;16.85;61.85;96784.44;5036877;28;20262;-49
2022/05/12 03:15:00;;;;;;;5.20;2.58;;;;;;;16.76;61.83;96788.16;5049135;28;20533;-50
2022/05/12 03:17:27;;;;;;;3.13;2.83;;;;;;;16.66;63.35;96779.53;5057309;28;20294;-49
2022/05/12 03:19:54;;;;;;;3.67;2.60;;;;;;;16.60;64.22;96788.28;5057475;28;20203;-49
2022/05/12 03:22:21;;;;;;;2.92;2.65;;;;;;;16.61;62.84;96792.63;5057344;28;20289;-49
2022/05/12 03:24:48;;;;;;;2.70;2.50;;;;;;;16.54;63.03;96794.28;5056606;28;20782;-49
2022/05/12 03:27:15;;;;;;;3.50;2.60;;;;;;;16.46;64.18;96791.66;5058307;28;20570;-49
2022/05/12 03:29:42;;;;;;;5.10;2.67;;;;;;;16.37;63.94;96803.38;5076888;28;20233;-49
2022/05/12 03:32:10;;;;;;;2.47;2.30;;;;;;;16.27;64.93;96800.09;5066904;28;20215;-49
2022/05/12 03:34:37;;;;;;;2.93;2.73;;;;;;;16.25;63.90;96805.63;5050964;28;20208;-49
2022/05/12 03:37:04;;;;;;;3.28;2.40;;;;;;;16.23;65.13;96806.78;5058624;28;20207;-48
2022/05/12 03:39:31;;;;;;;5.03;2.65;;;;;;;16.24;64.44;96805.78;5058447;28;20214;-48
2022/05/12 03:42:02;;;;;;;2.58;2.38;;;;;;;16.24;63.92;96816.47;5055952;28;20234;-50
2022/05/12 03:47:14;;;;;;;5.55;2.95;;;;;;;16.18;65.13;96811.81;5056846;28;20201;-49
2022/05/12 03:49:42;;;;;;;7.15;4.35;;;;;;;16.10;66.12;96819.84;5057000;28;20329;-49
2022/05/12 03:52:09;;;;;;;3.42;3.13;;;;;;;16.03;64.31;96818.88;5056561;28;20203;-50
2022/05/12 03:54:35;;;;;;;3.38;2.60;;;;;;;16.08;64.99;96819.22;5055470;28;20272;-48
2022/05/12 03:57:06;;;;;;;3.13;2.53;;;;;;;16.06;65.42;96835.38;5056702;28;20199;-49
2022/05/12 03:59:33;;;;;;;3.50;2.80;;;;;;;16.08;65.64;96821.88;5056759;28;20214;-50
2022/05/12 04:02:00;;;;;;;3.13;2.47;;;;;;;16.01;68.44;96828.91;5056691;28;20292;-49
2022/05/12 04:04:26;;;;;;;5.43;3.05;;;;;;;16.05;67.32;96819.56;5056523;28;20221;-48
2022/05/12 04:06:53;;;;;;;3.90;2.67;;;;;;;16.08;66.46;96821.88;5055422;28;20238;-48
2022/05/12 04:09:19;;;;;;;2.97;2.53;;;;;;;16.08;67.47;96816.53;5056299;28;20219;-49
2022/05/12 04:11:45;;;;;;;2.92;2.40;;;;;;;16.05;69.04;96814.22;5056126;28;20548;-48
2022/05/12 04:14:13;;;;;;;4.73;2.83;;;;;;;16.02;68.31;96818.03;5055983;28;20211;-49
2022/05/12 04:16:40;;;;;;;2.53;2.30;;;;;;;15.97;67.57;96832.91;5056523;28;20206;-49
2022/05/12 04:19:06;;;;;;;3.10;2.67;;;;;;;15.99;68.12;96812.22;5056328;28;20211;-49
2022/05/12 04:21:34;;;;;;;6.55;3.22;;;;;;;16.03;66.48;96816.22;5056625;28;20575;-49
2022/05/12 04:24:04;;;;;;;5.85;3.55;;;;;;;15.98;68.26;96823.91;5055214;28;20235;-49
2022/05/12 04:26:30;;;;;;;3.20;2.70;;;;;;;15.97;67.14;96825.75;5056090;28;20595;-48
2022/05/12 04:28:59;;;;;;;3.87;2.50;;;;;;;15.96;68.46;96820.56;5058290;28;20214;-50
2022/05/12 04:31:30;;;;;;;4.67;2.70;;;;;;;16.05;67.89;96832.91;5063125;28;20211;-49
2022/05/12 04:36:41;;;;;;;2.80;2.58;;;;;;;16.11;69.10;96846.38;5056134;28;20619;-50
2022/05/12 04:39:08;;;;;;;3.47;2.58;;;;;;;16.24;68.05;96845.81;5056200;28;20214;-49
2022/05/12 04:41:37;;;;;;;5.43;3.00;;;;;;;16.40;66.71;96851.91;5055671;28;20675;-49
2022/05/12 04:44:06;;;;;;;3.95;2.60;;;;;;;16.46;65.77;96861.06;5056231;28;20203;-50
2022/05/12 04:46:36;;;;;;;2.83;2.55;;;;;;;16.36;67.22;96865.78;5055354;28;20223;-49
2022/05/12 04:49:03;;;;;;;4.72;3.15;;;;;;;16.41;67.08;96866.09;5055993;28;20207;-50
2022/05/12 04:51:31;;;;;;;2.60;2.40;;;;;;;16.41;67.62;96866.91;5055789;28;20203;-49
2022/05/12 04:53:58;;;;;;;4.33;2.93;;;;;;;16.42;68.57;96871.25;5055815;28;20241;-49
2022/05/12 04:56:24;;;;;;;2.75;2.53;;;;;;;16.66;67.66;96875.69;5055874;28;20195;-48
2022/05/12 04:58:51;;;;;;;2.85;2.65;;;;;;;16.79;67.22;96877.78;5055625;28;20198;-50
2022/05/12 05:01:17;;;;;;;3.20;2.80;;;;;;;16.87;66.69;96880.41;5055513;28;20207;-49
2022/05/12 05:03:45;;;;;;;2.83;2.60;;;;;;;16.79;70.74;96877.78;5055505;28;20211;-49
2022/05/12 05:06:12;;;;;;;3.25;2.67;;;;;;;17.04;68.56;96881.16;5055424;28;20233;-49
2022/05/12 05:08:39;;;;;;;2.85;2.53;;;;;;;17.20;67.75;96881.00;5055562;28;20199;-49
2022/05/12 05:11:06;;;;;;;3.25;2.95;;;;;;;17.45;69.09;96881.66;5053143;28;20230;-49
2022/05/12 05:13:33;;;;;;;5.20;3.00;;;;;;;17.61;66.90;96887.72;5049743;28;20203;-49
2022/05/12 05:15:59;;;;;;;3.63;2.95;;;;;;;18.08;68.03;96890.09;5055127;28;20195;-49
2022/05/12 05:18:26;;;;;;;5.75;2.83;;;;;;;18.47;65.60;96892.50;5054045;28;20206;-49
2022/05/12 05:20:54;;;;;;;3.88;2.65;;;;;;;18.62;62.89;96889.84;5055411;28;20203;-49
2022/05/12 05:23:24;;;;;;;3.00;2.33;;;;;;;18.73;56.38;96908.13;5054507;28;20238;-49
2022/05/12 05:25:52;;;;;;;2.95;2.35;;;;;;;18.88;54.83;96899.03;5054980;28;20241;-50
2022/05/12 05:28:18;;;;;;;2.95;2.08;;;;;;;18.95;52.28;96898.28;5055120;28;20206;-50
2022/05/12 05:30:46;;;;;;;2.53;2.33;;;;;;;19.03;54.61;96898.16;5055023;28;20207;-49
2022/05/12 05:33:14;;;;;;;5.20;2.17;;;;;;;18.93;59.22;96901.16;5055009;28;20218;-50
2022/05/12 05:35:41;;;;;;;3.60;2.60;;;;;;;18.67;60.79;96901.66;5054938;28;20535;-50
2022/05/12 05:38:09;;;;;;;4.60;3.08;;;;;;;18.68;61.33;96911.34;5054722;28;20195;-49
2022/05/12 05:40:35;;;;;;;11.85;3.80;;;;;;;18.40;62.85;96915.69;5054730;28;20211;-49
2022/05/12 05:43:02;;;;;;;3.63;2.40;;;;;;;18.35;61.23;96920.78;5055184;28;20207;-50
2022/05/12 05:45:32;;;;;;;3.08;2.45;;;;;;;18.34;61.06;96925.31;5057495;28;20554;-49
2022/05/12 05:48:05;;;;;;;2.75;2.50;;;;;;;18.23;60.50;96932.94;5072582;28;20188;-49
2022/05/12 05:53:23;;;;;;;7.15;3.60;;;;;;;18.29;62.86;96932.22;5069664;28;20187;-49
2022/05/12 05:53:24;;;;;;;3.78;2.72;;;;;;;18.33;62.71;96939.69;5052877;28;20234;-49
2022/05/12 05:55:52;;;;;;;3.20;2.90;;;;;;;18.29;66.37;96937.56;5055535;28;20199;-49
2022/05/12 05:58:19;;;;;;;3.45;2.67;;;;;;;18.66;64.08;96939.34;5056120;28;20241;-49
2022/05/12 06:00:46;;;;;;;3.38;2.70;;;;;;;18.66;63.86;96944.72;5055163;28;20206;-49
2022/05/12 06:03:13;;;;;;;4.07;2.63;;;;;;;18.77;62.34;96952.28;5054926;28;20221;-50
2022/05/12 06:05:41;;;;;;;4.50;2.90;;;;;;;18.67;64.92;96962.47;5054528;28;20199;-49
2022/05/12 06:08:11;;;;;;;4.43;3.03;;;;;;;18.60;67.36;96962.34;5054445;28;20199;-49
2022/05/12 06:10:39;;;;;;;4.25;2.95;;;;;;;18.61;63.89;96964.03;5054879;28;20226;-49
2022/05/12 06:13:06;;;;;;;4.55;2.90;;;;;;;18.51;66.39;96960.78;5054563;28;20199;-49
2022/05/12 06:15:34;;;;;;;4.40;2.67;;;;;;;18.42;66.82;96961.03;5053820;28;20213;-49
2022/05/12 06:18:03;;;;;;;6.22;2.78;;;;;;;18.32;72.55;96970.16;5054721;28;20237;-49
2022/05/12 06:20:30;;;;;;;4.38;2.80;;;;;;;18.33;70.42;96963.78;5054309;28;20218;-50
2022/05/12 06:22:57;;;;;;;5.43;3.40;;;;;;;18.40;70.50;96956.69;5054013;28;20246;-49
2022/05/12 06:25:23;;;;;;;4.85;3.35;;;;;;;18.83;70.72;96964.94;5054438;28;20210;-49
2022/05/12 06:27:51;;;;;;;7.03;3.45;;;;;;;19.16;66.79;96957.31;5054286;28;20233;-50
2022/05/12 06:30:18;;;;;;;4.90;3.33;;;;;;;19.52;67.44;96962.69;5057241;28;20239;-49
2022/05/12 06:32:46;;;;;;;3.40;2.67;;;;;;;20.04;65.89;96962.31;5058454;28;20203;-49
2022/05/12 06:35:16;;;;;;;5.68;2.80;;;;;;;20.58;60.49;96954.47;5058759;28;20211;-50
2022/05/12 06:37:43;;;;;;;2.88;2.60;;;;;;;21.20;58.15;96954.38;5057376;28;20663;-53
2022/05/12 06:40:13;;;;;;;2.83;2.45;;;;;;;21.55;56.42;96953.22;5058817;28;20646;-50
2022/05/12 06:42:41;;;;;;;3.60;2.50;;;;;;;22.01;53.76;96963.25;5045278;28;20204;-49
2022/05/12 06:45:10;;;;;;;3.25;2.33;;;;;;;22.56;52.51;96962.00;5058992;28;20242;-50
2022/05/12 06:47:38;;;;;;;6.00;2.40;;;;;;;22.93;50.83;96953.19;5058557;28;20258;-49
2022/05/12 06:50:08;;;;;;;3.95;2.33;;;;;;;23.46;47.03;96952.97;5058641;28;20203;-49
2022/05/12 06:52:35;;;;;;;2.33;2.13;;;;;;;23.79;45.57;96957.16;5058824;28;20213;-50
2022/05/12 06:55:03;;;;;;;2.30;2.10;;;;;;;24.05;43.41;96950.75;5058172;28;20213;-49
2022/05/12 06:57:30;;;;;;;2.05;1.83;;;;;;;24.36;43.86;96957.16;5057186;28;20210;-50
2022/05/12 06:59:58;;;;;;;6.43;2.50;;;;;;;24.69;41.67;96955.75;5058020;28;20275;-49
2022/05/12 07:02:27;;;;;;;2.33;2.13;;;;;;;24.73;42.16;96956.97;5054704;28;20207;-49
2022/05/12 07:04:53;;;;;;;2.10;2.00;;;;;;;24.96;39.92;96956.34;5057923;28;20207;-50
2022/05/12 07:07:21;;;;;;;3.00;2.63;;;;;;;25.30;41.12;96957.59;5057714;28;20258;-50
2022/05/12 07:09:50;;;;;;;2.10;1.90;;;;;;;25.23;41.64;96956.84;5057732;28;20246;-50
2022/05/12 07:12:17;;;;;;;3.70;2.00;;;;;;;25.73;42.15;96958.28;5057753;28;20203;-49
2022/05/12 07:14:43;;;;;;;2.53;2.33;;;;;;;25.88;40.02;96941.59;5058045;28;20203;-50
2022/05/12 07:17:10;;;;;;;3.42;2.30;;;;;;;25.58;37.29;96943.50;5058156;28;20224;-49
2022/05/12 07:19:38;;;;;;;4.43;2.05;;;;;;;25.65;38.03;96944.22;5058421;28;20234;-49
2022/05/12 07:27:36;;;;;;;4.22;1.95;;;;;;;25.63;37.29;96938.22;5058855;28;20352;-49
2022/05/12 07:30:03;;;;;;;4.75;2.53;;;;;;;25.73;38.46;96944.72;5059964;28;20631;-49
2022/05/12 07:32:30;;;;;;;6.18;2.17;;;;;;;25.98;35.71;96943.72;5061124;28;20207;-49
2022/05/12 07:34:58;;;;;;;2.53;2.13;;;;;;;26.23;35.63;96947.09;5061525;28;20211;-49
2022/05/12 07:37:24;;;;;;;3.35;2.35;;;;;;;26.21;36.17;96943.81;5073140;28;20218;-49
2022/05/12 07:39:51;;;;;;;2.47;2.00;;;;;;;26.16;36.58;96946.34;5069741;28;20203;-50
2022/05/12 07:42:17;;;;;;;4.38;2.40;;;;;;;26.37;36.31;96953.94;5058540;28;20212;-49
2022/05/12 07:44:44;;;;;;;3.58;2.05;;;;;;;26.34;33.72;96948.19;5067977;28;20207;-50
2022/05/12 07:47:13;;;;;;;3.13;2.17;;;;;;;26.53;35.82;96955.16;5070222;28;20260;-50
2022/05/12 07:49:41;;;;;;;3.38;2.33;;;;;;;26.61;35.31;96958.31;5074549;28;20299;-50
2022/05/12 07:52:12;;;;;;;2.42;2.22;;;;;;;26.68;38.61;96950.88;5075797;28;20207;-50
2022/05/12 07:54:41;;;;;;;2.67;2.20;;;;;;;26.94;37.28;96960.47;5076332;28;20187;-50
2022/05/12 07:57:08;;;;;;;2.30;2.08;;;;;;;27.00;36.89;96951.34;5077939;28;20268;-50
2022/05/12 07:59:34;;;;;;;4.65;2.45;;;;;;;27.39;37.01;96968.72;5079585;28;20234;-50
2022/05/12 08:02:03;;;;;;;4.00;2.22;;;;;;;27.46;32.70;96958.56;5079495;28;20211;-49
2022/05/12 08:04:30;;;;;;;3.30;2.17;;;;;;;27.63;34.40;96959.44;5060040;28;20231;-54
2022/05/12 08:06:59;;;;;;;2.60;2.40;;;;;;;27.76;34.94;96973.81;5071865;28;20226;-50
2022/05/12 08:09:27;;;;;;;3.03;2.22;;;;;;;27.62;33.33;96970.56;5066956;28;20183;-49
2022/05/12 08:11:55;;;;;;;3.20;2.20;;;;;;;27.69;34.09;96969.38;5069364;28;20263;-49
2022/05/12 08:14:21;;;;;;;4.57;2.20;;;;;;;27.99;33.48;96976.41;5060021;28;20206;-50
2022/05/12 08:16:48;;;;;;;6.72;2.33;;;;;;;27.79;33.32;96973.31;5058436;28;20218;-50
2022/05/12 08:19:15;;;;;;;2.58;2.15;;;;;;;27.70;34.28;96981.88;5057964;28;20207;-50
2022/05/12 08:21:41;;;;;;;6.45;2.10;;;;;;;27.84;34.42;96992.47;5061475;28;20230;-50
2022/05/12 08:24:10;;;;;;;3.67;2.35;;;;;;;27.80;33.37;96981.25;5056765;28;20209;-49
2022/05/12 08:26:37;;;;;;;4.15;2.47;;;;;;;27.57;33.31;96987.59;5055838;28;20702;-50
2022/05/12 08:29:04;;;;;;;2.92;2.40;;;;;;;27.51;34.10;96991.28;5056305;28;20238;-48
2022/05/12 08:31:33;;;;;;;4.47;2.33;;;;;;;27.20;34.80;96991.69;5056491;28;20210;-50
2022/05/12 08:34:00;;;;;;;2.63;2.15;;;;;;;27.64;33.76;96991.00;5056443;28;20202;-50
2022/05/12 08:36:28;;;;;;;3.75;2.20;;;;;;;27.69;34.13;96985.66;5056078;28;20221;-50
2022/05/12 08:38:54;;;;;;;3.17;2.20;;;;;;;27.58;34.66;96985.72;5055818;28;20230;-50
2022/05/12 08:41:28;;;;;;;3.13;2.22;;;;;;;27.66;33.84;96980.72;5056085;28;20222;-50
2022/05/12 08:43:58;;;;;;;3.92;2.42;;;;;;;27.50;37.16;96989.63;5056540;28;20282;-49
2022/05/12 08:46:27;;;;;;;3.20;2.30;;;;;;;27.67;33.52;96987.78;5056186;28;20219;-50
2022/05/12 08:49:03;;;;;;;2.30;2.10;;;;;;;28.49;33.18;96985.47;5057296;28;20211;-50
2022/05/12 08:51:33;;;;;;;2.30;2.10;;;;;;;28.86;34.27;96982.25;5069803;28;20599;-49
2022/05/12 08:54:03;;;;;;;4.57;2.20;;;;;;;28.54;33.17;96980.13;5063189;28;20191;-49
2022/05/12 08:56:30;;;;;;;2.28;1.83;;;;;;;28.60;33.23;96976.41;5063834;28;20698;-49
2022/05/12 08:58:58;;;;;;;3.28;2.30;;;;;;;28.93;33.74;96981.00;5063271;28;20557;-49
2022/05/12 09:01:36;;;;;;;8.65;2.70;;;;;;;28.66;34.18;96982.75;5067359;28;20214;-49
2022/05/12 09:04:31;;;;;;;3.40;2.40;;;;;;;28.87;35.06;96975.75;5062270;28;20195;-50
2022/05/12 09:07:02;;;;;;;2.58;2.28;;;;;;;28.87;30.86;96971.13;5065785;28;20220;-48
2022/05/12 09:09:32;;;;;;;4.15;2.33;;;;;;;28.92;33.32;96973.06;5055418;28;20214;-50
2022/05/12 09:12:06;;;;;;;4.43;2.35;;;;;;;28.91;32.43;96976.91;5063979;28;20195;-50
2022/05/12 09:14:38;;;;;;;2.75;2.10;;;;;;;29.22;31.42;96965.31;5064916;28;20213;-50
2022/05/12 09:17:07;;;;;;;2.53;1.88;;;;;;;29.21;33.02;96963.66;5061312;28;20203;-49
2022/05/12 09:19:33;;;;;;;5.82;2.28;;;;;;;29.55;30.26;96950.75;5064641;28;20215;-49
2022/05/12 09:21:59;;;;;;;3.10;2.08;;;;;;;29.47;29.89;96962.13;5051301;28;20243;-49
2022/05/12 09:24:26;;;;;;;3.40;2.28;;;;;;;29.51;31.40;96966.00;5065677;28;20199;-50
2022/05/12 09:27:07;;;;;;;4.53;2.28;;;;;;;29.12;32.88;96954.31;5068807;28;20261;-48
2022/05/12 09:29:43;;;;;;;2.85;2.20;;;;;;;29.63;33.11;96953.03;5068382;28;20202;-50
2022/05/12 09:32:26;;;;;;;4.05;2.20;;;;;;;29.71;32.29;96957.19;5053054;28;20199;-50
2022/05/12 09:35:10;;;;;;;3.47;2.00;;;;;;;29.76;32.46;96963.53;5063206;28;20213;-49
2022/05/12 09:37:40;;;;;;;4.85;3.40;;;;;;;29.63;30.33;96958.47;5065621;28;20210;-50
2022/05/12 09:40:22;;;;;;;3.00;2.70;;;;;;;29.32;31.05;96951.03;5065317;28;20271;-50
2022/05/12 09:42:51;;;;;;;3.47;2.45;;;;;;;29.21;33.64;96947.31;5063085;28;20207;-50
2022/05/12 09:45:31;;;;;;;2.78;2.45;;;;;;;29.21;32.37;96943.78;5058666;28;20756;-49
2022/05/12 09:48:18;;;;;;;2.53;2.22;;;;;;;29.58;34.51;96944.81;5067490;28;20226;-49
2022/05/12 09:50:46;;;;;;;2.60;2.40;;;;;;;30.04;31.39;96937.94;5068113;28;20211;-50
2022/05/12 09:53:13;;;;;;;2.65;2.42;;;;;;;30.14;29.36;96938.03;5064092;28;20210;-50
2022/05/12 09:55:42;;;;;;;2.90;1.88;;;;;;;29.94;28.58;96935.09;5060796;28;20260;-50
2022/05/12 09:58:30;;;;;;;4.10;1.80;;;;;;;30.08;27.20;96939.03;5057898;28;20210;-50
2022/05/12 10:01:19;;;;;;;3.50;2.35;;;;;;;30.03;28.08;96925.38;5055059;28;20203;-50
2022/05/12 10:09:19;;;;;;;3.47;2.00;;;;;;;30.41;29.90;96914.25;5058830;28;20345;-50
2022/05/12 10:11:51;;;;;;;2.63;1.80;;;;;;;30.45;30.74;96918.09;5058164;28;20217;-50
2022/05/12 10:14:34;;;;;;;4.07;2.42;;;;;;;30.81;28.11;96904.69;5045487;28;20210;-51
2022/05/12 10:17:04;;;;;;;3.25;1.90;;;;;;;30.66;29.48;96910.88;5058775;28;20210;-51
2022/05/12 10:19:31;;;;;;;2.33;2.13;;;;;;;30.59;31.24;96902.09;5058721;28;20199;-50
2022/05/12 10:22:12;;;;;;;2.95;1.88;;;;;;;30.40;29.66;96909.00;5061783;28;20215;-49
2022/05/12 10:24:45;;;;;;;7.15;2.30;;;;;;;30.30;27.93;96909.78;5080543;28;20233;-50
2022/05/12 10:27:15;;;;;;;4.32;2.30;;;;;;;30.03;28.96;96904.38;5081490;28;20243;-50
2022/05/12 10:29:48;;;;;;;4.15;2.72;;;;;;;30.15;31.51;96901.47;5072918;28;20210;-50
2022/05/12 10:32:26;;;;;;;3.38;2.20;;;;;;;30.23;28.73;96898.25;5049302;28;20638;-51
2022/05/12 10:34:57;;;;;;;2.83;2.20;;;;;;;30.04;28.96;96899.75;5058931;28;20201;-50
2022/05/12 10:37:37;;;;;;;5.45;2.50;;;;;;;30.11;27.87;96894.91;5058394;28;20191;-50
2022/05/12 10:40:16;;;;;;;2.63;2.13;;;;;;;30.10;29.55;96893.25;5058261;28;20203;-50
2022/05/12 10:42:50;;;;;;;2.92;2.60;;;;;;;30.50;29.45;96892.78;5058582;28;20195;-50
2022/05/12 10:45:23;;;;;;;2.88;1.90;;;;;;;30.21;27.86;96886.78;5046289;28;20226;-49
2022/05/12 10:48:11;;;;;;;1.92;1.80;;;;;;;30.22;28.30;96877.50;5056808;28;20227;-50
2022/05/12 10:50:40;;;;;;;2.00;1.90;;;;;;;30.65;31.63;96871.00;5058364;28;20202;-51
2022/05/12 10:53:16;;;;;;;2.65;2.25;;;;;;;30.51;28.74;96876.09;5058586;28;20238;-50
2022/05/12 10:55:48;;;;;;;3.47;2.65;;;;;;;30.24;28.21;96867.16;5058295;28;20194;-50
2022/05/12 10:58:23;;;;;;;6.55;3.60;;;;;;;30.12;27.40;96869.25;5045942;28;20199;-50
2022/05/12 11:01:17;;;;;;;6.95;5.28;;;;;;;30.43;26.98;96873.88;5058534;28;20202;-50
2022/05/12 11:03:53;;;;;;;3.92;2.13;;;;;;;30.23;28.58;96870.97;5065670;28;20221;-50
2022/05/12 11:06:25;;;;;;;3.17;2.33;;;;;;;30.23;28.30;96876.44;5055695;28;20207;-50
2022/05/12 11:08:55;;;;;;;2.53;2.33;;;;;;;30.20;28.82;96870.69;5057623;28;20223;-49
2022/05/12 11:11:24;;;;;;;8.13;2.40;;;;;;;30.01;27.53;96862.06;5057878;28;20198;-50
2022/05/12 11:13:56;;;;;;;3.17;2.88;;;;;;;29.77;28.05;96860.75;5056602;28;20230;-49
2022/05/12 11:16:26;;;;;;;2.13;1.98;;;;;;;29.77;28.90;96860.75;5057695;28;20199;-49
2022/05/12 11:18:58;;;;;;;2.88;2.10;;;;;;;30.08;29.46;96859.94;5057800;28;20191;-50
2022/05/12 11:21:29;;;;;;;3.90;2.30;;;;;;;29.78;27.49;96846.03;5057460;28;20206;-50
2022/05/12 11:24:12;;;;;;;1.92;1.77;;;;;;;29.82;29.20;96852.63;5057307;28;20308;-50
2022/05/12 11:26:47;;;;;;;2.50;2.30;;;;;;;30.10;31.09;96849.59;5057096;28;20215;-49
2022/05/12 11:32:11;;;;;;;3.85;2.25;;;;;;;30.06;28.25;96853.94;5044143;28;20195;-49
2022/05/12 11:34:40;;;;;;;3.63;2.25;;;;;;;30.08;30.86;96851.75;5057228;28;20226;-50
2022/05/12 11:37:29;;;;;;;3.75;2.05;;;;;;;30.22;27.22;96842.03;5056228;28;20298;-50
2022/05/12 11:39:58;;;;;;;3.40;2.15;;;;;;;30.16;27.96;96853.19;5050768;28;20266;-49
2022/05/12 11:42:28;;;;;;;2.92;2.08;;;;;;;30.05;29.69;96839.47;5057463;28;20203;-49
2022/05/12 11:44:59;;;;;;;3.20;2.25;;;;;;;30.31;28.76;96839.66;5057282;28;20203;-50
2022/05/12 11:47:57;;;;;;;2.47;2.17;;;;;;;30.52;31.60;96827.81;5057352;28;20301;-49
2022/05/12 11:51:07;;;;;;;4.50;2.30;;;;;;;30.57;28.60;96823.19;5047480;28;20207;-50
2022/05/12 11:53:55;;;;;;;3.28;2.05;;;;;;;30.49;31.50;96829.16;5046941;28;20702;-50
2022/05/12 11:56:46;;;;;;;2.78;2.08;;;;;;;30.48;27.52;96827.50;5043611;28;20279;-50
2022/05/12 11:59:24;;;;;;;3.28;2.25;;;;;;;30.68;30.25;96817.78;5055374;28;20639;-49
2022/05/12 12:01:56;;;;;;;3.40;2.20;;;;;;;30.61;31.14;96813.38;5057371;28;20360;-50
2022/05/12 12:04:44;;;;;;;4.43;1.95;;;;;;;30.74;29.79;96805.78;5056744;28;20203;-50